This is the latest recevied weather packets stored in our database for station/object W3TMB. If no packets are shown the sender has not sent any weather packets the latest 1 day(s).
| Time | Temp. | Humidity | Pressure | Rain* | Wind** | Luminosity | Snow |
|---|---|---|---|---|---|---|---|
| 1777990944 | 23.89° C | 56% | 1005.2 hPa | 0 mm | 1.34 m/s, 293° | 664 W/m² | - |
| 1777990642 | 23.33° C | 58% | 1005.2 hPa | 0 mm | 0 m/s | 658 W/m² | - |
| 1777990339 | 22.78° C | 59% | 1005.1 hPa | 0 mm | 0.89 m/s, 267° | 632 W/m² | - |
| 1777990034 | 22.78° C | 60% | 1005.2 hPa | 0 mm | 0.45 m/s, 322° | 549 W/m² | - |
| 1777989732 | 22.78° C | 61% | 1005.2 hPa | 0 mm | 0.89 m/s, 289° | 598 W/m² | - |
| 1777989428 | 22.78° C | 60% | 1005.1 hPa | 0 mm | 1.34 m/s, 239° | 600 W/m² | - |
| 1777989125 | 22.22° C | 64% | 1005.3 hPa | 0 mm | 0.45 m/s, 339° | 591 W/m² | - |
| 1777988820 | 21.11° C | 67% | 1005.5 hPa | 0 mm | 0.45 m/s, 246° | 527 W/m² | - |
| 1777988518 | 20.56° C | 70% | 1005.6 hPa | 0 mm | 0.45 m/s, 306° | 482 W/m² | - |
| 1777988215 | 20° C | 73% | 1005.7 hPa | 0 mm | 0.45 m/s, 39° | 493 W/m² | - |
| 1777987911 | 19.44° C | 74% | 1005.4 hPa | 0 mm | 0 m/s | 478 W/m² | - |
| 1777987607 | 18.33° C | 76% | 1005.7 hPa | 0 mm | 0 m/s | 472 W/m² | - |
| 1777987305 | 18.33° C | 78% | 1005.8 hPa | 0 mm | 0.45 m/s, 24° | 465 W/m² | - |
| 1777987001 | 18.33° C | 77% | 1005.5 hPa | 0 mm | 0.45 m/s, 27° | 457 W/m² | - |
| 1777986699 | 18.33° C | 76% | 1005.8 hPa | 0 mm | 0.45 m/s, 22° | 388 W/m² | - |
| 1777986397 | 17.78° C | 78% | 1005.7 hPa | 0 mm | 0 m/s | 369 W/m² | - |
| 1777986096 | 17.78° C | 78% | 1005.8 hPa | 0 mm | 0.45 m/s, 34° | 356 W/m² | - |
| 1777985791 | 16.67° C | 79% | 1005.8 hPa | 0 mm | 0.45 m/s, 92° | 375 W/m² | - |
| 1777985488 | 16.11° C | 81% | 1006 hPa | 0 mm | 0.45 m/s, 24° | 321 W/m² | - |
| 1777985185 | 16.67° C | 80% | 1006 hPa | 0 mm | 0 m/s | 305 W/m² | - |
| 1777984882 | 16.11° C | 84% | 1006.4 hPa | 0 mm | 0 m/s | 254 W/m² | - |
| 1777984586 | 15° C | 87% | 1006.2 hPa | 0 mm | 0 m/s | 243 W/m² | - |
| 1777984274 | 13.89° C | 92% | 1006.4 hPa | 0 mm | 0 m/s | 244 W/m² | - |
| 1777983971 | 12.78° C | 94% | 1006.3 hPa | 0 mm | 0.45 m/s, 7° | 236 W/m² | - |
| 1777983669 | 12.78° C | 96% | 1006.5 hPa | 0 mm | 0.45 m/s, 2° | 207 W/m² | - |
* Rain latest hour (hover to see other rain measurements)
** Current wind speed in m/s (hover to see current wind gust speed)